createdAt,value
2023-05-15T00:01:53.013Z,16.50
2023-05-15T00:04:21.879Z,16.48
2023-05-15T00:06:51.331Z,16.46
2023-05-15T00:09:20.527Z,16.44
2023-05-15T00:11:49.607Z,16.42
2023-05-15T00:14:18.490Z,16.41
2023-05-15T00:16:47.413Z,16.38
2023-05-15T00:19:16.695Z,16.36
2023-05-15T00:21:46.202Z,16.33
2023-05-15T00:24:15.084Z,16.30
2023-05-15T00:26:44.324Z,16.26
2023-05-15T00:29:19.568Z,16.22
2023-05-15T00:32:08.472Z,16.19
2023-05-15T00:34:43.626Z,16.16
2023-05-15T00:37:32.485Z,16.12
2023-05-15T00:40:08.139Z,16.08
2023-05-15T00:42:43.467Z,16.06
2023-05-15T00:45:13.194Z,16.02
2023-05-15T00:47:43.590Z,16.00
2023-05-15T00:50:12.715Z,15.98
2023-05-15T00:52:42.631Z,15.95
2023-05-15T00:55:11.519Z,15.93
2023-05-15T00:57:42.528Z,15.90
2023-05-15T01:00:12.612Z,15.87
2023-05-15T01:02:41.498Z,15.85
2023-05-15T01:05:10.567Z,15.83
2023-05-15T01:07:52.628Z,15.79
2023-05-15T01:10:21.879Z,15.77
2023-05-15T01:12:51.882Z,15.73
2023-05-15T01:15:21.200Z,15.71
2023-05-15T01:17:51.105Z,15.69
2023-05-15T01:20:21.303Z,15.66
2023-05-15T01:23:00.662Z,15.64
2023-05-15T01:25:44.678Z,15.62
2023-05-15T01:28:17.796Z,15.61
2023-05-15T01:30:48.131Z,15.60
2023-05-15T01:33:28.501Z,15.57
2023-05-15T01:36:15.088Z,15.55
2023-05-15T01:38:50.587Z,15.51
2023-05-15T01:41:47.275Z,15.47
2023-05-15T01:44:46.998Z,15.42
2023-05-15T01:47:21.519Z,15.36
2023-05-15T01:49:51.210Z,15.31
2023-05-15T01:52:33.020Z,15.25
2023-05-15T01:55:03.314Z,15.21
2023-05-15T01:57:32.441Z,15.17
2023-05-15T02:00:01.839Z,15.13
2023-05-15T02:02:31.069Z,15.08
2023-05-15T02:05:00.646Z,15.02
2023-05-15T02:07:30.132Z,14.96
2023-05-15T02:09:59.658Z,14.90
2023-05-15T02:12:28.827Z,14.85
2023-05-15T02:14:58.217Z,14.82
2023-05-15T02:17:28.860Z,14.83
2023-05-15T02:19:57.903Z,14.84
2023-05-15T02:22:26.777Z,14.86
2023-05-15T02:24:55.665Z,14.88
2023-05-15T02:27:29.599Z,14.88
2023-05-15T02:30:16.907Z,14.87
2023-05-15T02:33:04.898Z,14.86
2023-05-15T02:35:59.384Z,14.84
2023-05-15T02:38:36.105Z,14.82
2023-05-15T02:41:06.330Z,14.79
2023-05-15T02:43:36.507Z,14.76
2023-05-15T02:46:07.357Z,14.71
2023-05-15T02:48:40.073Z,14.67
2023-05-15T02:51:10.501Z,14.64
2023-05-15T02:53:42.636Z,14.60
2023-05-15T02:56:11.569Z,14.56
2023-05-15T02:58:41.125Z,14.55
2023-05-15T03:01:10.077Z,14.57
2023-05-15T03:03:39.049Z,14.62
2023-05-15T03:06:08.032Z,14.65
2023-05-15T03:08:36.867Z,14.65
2023-05-15T03:11:06.284Z,14.66
2023-05-15T03:13:35.205Z,14.65
2023-05-15T03:16:04.317Z,14.60
2023-05-15T03:18:33.214Z,14.59
2023-05-15T03:21:02.106Z,14.57
2023-05-15T03:23:32.163Z,14.55
2023-05-15T03:26:01.527Z,14.52
2023-05-15T03:28:30.619Z,14.48
2023-05-15T03:30:59.827Z,14.44
2023-05-15T03:33:28.849Z,14.43
2023-05-15T03:35:57.642Z,14.45
2023-05-15T03:38:26.596Z,14.49
2023-05-15T03:40:55.497Z,14.50
2023-05-15T03:43:24.287Z,14.47
2023-05-15T03:45:53.073Z,14.44
2023-05-15T03:48:21.980Z,14.42
2023-05-15T03:50:51.261Z,14.38
2023-05-15T03:53:20.145Z,14.35
2023-05-15T03:55:49.049Z,14.32
2023-05-15T03:58:18.265Z,14.34
2023-05-15T04:00:47.212Z,14.38
2023-05-15T04:03:16.352Z,14.40
2023-05-15T04:05:50.553Z,14.38
2023-05-15T04:08:19.553Z,14.34
2023-05-15T04:10:48.427Z,14.32
2023-05-15T04:13:17.604Z,14.30
2023-05-15T04:15:46.834Z,14.28
2023-05-15T04:18:16.090Z,14.28
2023-05-15T04:20:45.017Z,14.31
2023-05-15T04:23:14.016Z,14.35
2023-05-15T04:25:46.593Z,14.35
2023-05-15T04:28:16.102Z,14.36
2023-05-15T04:30:45.022Z,14.37
2023-05-15T04:33:14.053Z,14.37
2023-05-15T04:35:43.394Z,14.35
2023-05-15T04:38:12.354Z,14.38
2023-05-15T04:40:41.307Z,14.43
2023-05-15T04:43:10.254Z,14.48
2023-05-15T04:45:39.319Z,14.52
2023-05-15T04:48:08.395Z,14.54
2023-05-15T04:50:37.486Z,14.53
2023-05-15T04:53:06.638Z,14.52
2023-05-15T04:55:35.781Z,14.50
2023-05-15T04:58:04.950Z,14.49
2023-05-15T05:00:34.126Z,14.51
2023-05-15T05:03:03.121Z,14.55
2023-05-15T05:05:32.174Z,14.57
2023-05-15T05:08:01.201Z,14.57
2023-05-15T05:10:30.156Z,14.54
2023-05-15T05:12:59.089Z,14.53
2023-05-15T05:15:28.191Z,14.49
2023-05-15T05:17:57.299Z,14.48
2023-05-15T05:20:26.540Z,14.46
2023-05-15T05:22:55.833Z,14.43
2023-05-15T05:25:25.073Z,14.42
2023-05-15T05:27:54.210Z,14.36
2023-05-15T05:30:23.290Z,14.30
2023-05-15T05:32:52.296Z,14.22
2023-05-15T05:35:21.397Z,14.14
2023-05-15T05:37:50.587Z,14.08
2023-05-15T05:40:19.890Z,14.00
2023-05-15T05:42:48.835Z,13.94
2023-05-15T05:45:18.105Z,13.91
2023-05-15T05:47:47.179Z,13.90
2023-05-15T05:50:16.562Z,13.86
2023-05-15T05:52:45.507Z,13.83
2023-05-15T05:55:14.798Z,13.79
2023-05-15T05:57:43.782Z,13.73
2023-05-15T06:00:13.515Z,13.69
2023-05-15T06:02:42.962Z,13.67
2023-05-15T06:05:11.998Z,13.69
2023-05-15T06:07:41.492Z,13.72
2023-05-15T06:10:10.708Z,13.77
2023-05-15T06:12:39.623Z,13.81
2023-05-15T06:15:08.865Z,13.83
2023-05-15T06:17:38.454Z,13.84
2023-05-15T06:20:09.965Z,13.84
2023-05-15T06:22:39.113Z,13.88
2023-05-15T06:25:11.449Z,13.95
2023-05-15T06:27:43.622Z,14.05
2023-05-15T06:30:13.190Z,14.13
2023-05-15T06:32:42.344Z,14.23
2023-05-15T06:35:11.440Z,14.28
2023-05-15T06:37:40.596Z,14.32
2023-05-15T06:40:10.858Z,14.34
2023-05-15T06:42:39.829Z,14.35
2023-05-15T06:45:09.560Z,14.39
2023-05-15T06:47:38.519Z,14.44
2023-05-15T06:50:08.244Z,14.47
2023-05-15T06:52:37.162Z,14.51
2023-05-15T06:55:06.329Z,14.52
2023-05-15T06:57:35.315Z,14.52
2023-05-15T07:00:05.866Z,14.51
2023-05-15T07:02:34.833Z,14.46
2023-05-15T07:05:04.053Z,14.44
2023-05-15T07:07:33.161Z,14.43
2023-05-15T07:10:02.085Z,14.45
2023-05-15T07:12:31.260Z,14.48
2023-05-15T07:15:00.241Z,14.51
2023-05-15T07:17:29.268Z,14.50
2023-05-15T07:19:58.263Z,14.52
2023-05-15T07:22:28.653Z,14.55
2023-05-15T07:24:57.620Z,14.57
2023-05-15T07:27:26.888Z,14.56
2023-05-15T07:29:55.862Z,14.58
2023-05-15T07:32:24.870Z,14.62
2023-05-15T07:34:53.720Z,14.68
2023-05-15T07:37:23.518Z,14.72
2023-05-15T07:39:52.662Z,14.75
2023-05-15T07:42:21.579Z,14.76
2023-05-15T07:44:50.974Z,14.75
2023-05-15T07:47:19.916Z,14.73
2023-05-15T07:49:49.175Z,14.71
2023-05-15T07:52:18.029Z,14.72
2023-05-15T07:54:46.932Z,14.72
2023-05-15T07:57:15.774Z,14.73
2023-05-15T07:59:44.723Z,14.73
2023-05-15T08:02:13.859Z,14.72
2023-05-15T08:04:43.008Z,14.69
2023-05-15T08:07:13.858Z,14.67
2023-05-15T08:09:42.821Z,14.63
2023-05-15T08:12:18.129Z,14.57
2023-05-15T08:14:51.490Z,14.56
2023-05-15T08:17:21.240Z,14.56
2023-05-15T08:19:50.497Z,14.58
2023-05-15T08:22:19.898Z,14.59
2023-05-15T08:24:49.295Z,14.59
2023-05-15T08:27:18.137Z,14.58
2023-05-15T08:29:47.700Z,14.56
2023-05-15T08:32:16.585Z,14.54
2023-05-15T08:34:45.472Z,14.52
2023-05-15T08:37:14.487Z,14.51
2023-05-15T08:39:43.781Z,14.51
2023-05-15T08:42:20.567Z,14.52
2023-05-15T08:44:50.277Z,14.54
2023-05-15T08:47:20.200Z,14.54
2023-05-15T08:50:15.595Z,14.52
2023-05-15T08:52:47.257Z,14.52
2023-05-15T08:55:17.424Z,14.49
2023-05-15T08:57:48.119Z,14.47
2023-05-15T09:00:18.317Z,14.48
2023-05-15T09:02:47.278Z,14.50
2023-05-15T09:05:16.509Z,14.55
2023-05-15T09:07:46.457Z,14.59
2023-05-15T09:10:16.144Z,14.61
2023-05-15T09:12:45.237Z,14.64
2023-05-15T09:15:22.182Z,14.63
2023-05-15T09:17:51.954Z,14.63
2023-05-15T09:20:35.104Z,14.63
2023-05-15T09:23:05.367Z,14.66
2023-05-15T09:25:40.578Z,14.71
2023-05-15T09:28:11.171Z,14.75
2023-05-15T09:30:43.111Z,14.76
2023-05-15T09:33:12.267Z,14.76
2023-05-15T09:35:41.224Z,14.76
2023-05-15T09:38:12.760Z,14.74
2023-05-15T09:40:41.864Z,14.72
2023-05-15T09:43:14.441Z,14.73
2023-05-15T09:45:43.571Z,14.74
2023-05-15T09:48:20.274Z,14.77
2023-05-15T09:50:49.527Z,14.81
2023-05-15T09:53:21.485Z,14.83
2023-05-15T09:55:51.115Z,14.84
2023-05-15T09:58:20.014Z,14.83
2023-05-15T10:00:49.678Z,14.84
2023-05-15T10:03:22.625Z,14.85
2023-05-15T10:05:59.643Z,14.90
2023-05-15T10:08:29.270Z,14.94
2023-05-15T10:11:00.774Z,14.98
2023-05-15T10:13:32.200Z,15.02
2023-05-15T10:16:03.655Z,15.04
2023-05-15T10:18:34.070Z,15.05
2023-05-15T10:21:04.581Z,15.03
2023-05-15T10:23:36.731Z,15.00
2023-05-15T10:26:14.580Z,14.98
2023-05-15T10:28:44.864Z,15.00
2023-05-15T10:31:14.485Z,15.03
2023-05-15T10:33:44.165Z,15.08
2023-05-15T10:36:14.703Z,15.13
2023-05-15T10:38:44.315Z,15.16
2023-05-15T10:41:17.632Z,15.16
2023-05-15T10:43:47.743Z,15.19
2023-05-15T10:46:16.926Z,15.19
2023-05-15T10:48:47.969Z,15.20
2023-05-15T10:51:18.308Z,15.22
2023-05-15T10:53:47.386Z,15.24
2023-05-15T10:56:19.117Z,15.25
2023-05-15T10:58:49.327Z,15.25
2023-05-15T11:01:28.811Z,15.25
2023-05-15T11:04:09.420Z,15.25
2023-05-15T11:06:40.693Z,15.25
2023-05-15T11:09:22.454Z,15.24
2023-05-15T11:11:51.401Z,15.28
2023-05-15T11:14:20.413Z,15.32
2023-05-15T11:16:55.611Z,15.38
2023-05-15T11:19:28.671Z,15.40
2023-05-15T11:22:04.127Z,15.39
2023-05-15T11:24:47.535Z,15.35
2023-05-15T11:27:24.285Z,15.34
2023-05-15T11:30:13.384Z,15.35
2023-05-15T11:32:42.492Z,15.36
2023-05-15T11:35:32.734Z,15.36
2023-05-15T11:38:13.951Z,15.37
2023-05-15T11:40:46.765Z,15.36
2023-05-15T11:43:25.044Z,15.37
2023-05-15T11:45:56.281Z,15.36
2023-05-15T11:48:31.714Z,15.41
2023-05-15T11:51:04.484Z,15.52
2023-05-15T11:53:33.794Z,15.63
2023-05-15T11:56:03.192Z,15.76
2023-05-15T11:58:32.285Z,15.90
2023-05-15T12:01:02.414Z,16.00
2023-05-15T12:03:35.357Z,16.10
2023-05-15T12:06:04.792Z,16.28
2023-05-15T12:08:36.175Z,16.38
2023-05-15T12:11:06.174Z,16.42
2023-05-15T12:13:35.425Z,16.40
2023-05-15T12:16:04.929Z,16.36
2023-05-15T12:18:34.434Z,16.29
2023-05-15T12:21:05.622Z,16.24
2023-05-15T12:23:34.541Z,16.17
2023-05-15T12:26:03.907Z,16.12
2023-05-15T12:28:36.074Z,16.09
2023-05-15T12:31:05.453Z,16.06
2023-05-15T12:33:34.477Z,16.06
2023-05-15T12:36:03.554Z,16.06
2023-05-15T12:38:35.057Z,16.06
2023-05-15T12:41:04.136Z,16.02
2023-05-15T12:43:33.436Z,15.97
2023-05-15T12:46:02.373Z,15.93
2023-05-15T12:48:32.823Z,15.92
2023-05-15T12:51:07.204Z,15.92
2023-05-15T12:53:36.529Z,15.96
2023-05-15T12:56:05.856Z,15.99
2023-05-15T12:58:35.019Z,16.02
2023-05-15T13:01:04.285Z,16.09
2023-05-15T13:03:34.320Z,16.15
2023-05-15T13:06:03.781Z,16.23
2023-05-15T13:08:33.066Z,16.33
2023-05-15T13:11:02.232Z,16.38
2023-05-15T13:13:50.519Z,16.41
2023-05-15T13:16:20.498Z,16.39
2023-05-15T13:18:50.689Z,16.31
2023-05-15T13:21:20.082Z,16.25
2023-05-15T13:23:49.062Z,16.18
2023-05-15T13:26:18.268Z,16.13
2023-05-15T13:28:47.195Z,16.09
2023-05-15T13:31:17.255Z,16.09
2023-05-15T13:33:46.357Z,16.09
2023-05-15T13:36:15.162Z,16.10
2023-05-15T13:38:44.162Z,16.10
2023-05-15T13:41:13.147Z,16.09
2023-05-15T13:43:42.060Z,16.10
2023-05-15T13:46:10.929Z,16.18
2023-05-15T13:48:39.774Z,16.43
2023-05-15T13:51:08.711Z,16.87
2023-05-15T13:53:37.803Z,17.23
2023-05-15T13:56:06.770Z,17.54
2023-05-15T13:58:36.597Z,18.02
2023-05-15T14:01:07.472Z,18.46
2023-05-15T14:03:36.735Z,18.87
2023-05-15T14:06:06.026Z,19.13
2023-05-15T14:08:35.059Z,19.27
2023-05-15T14:11:03.959Z,19.31
2023-05-15T14:13:34.163Z,19.24
2023-05-15T14:16:03.252Z,19.13
2023-05-15T14:18:32.334Z,19.14
2023-05-15T14:21:01.291Z,19.07
2023-05-15T14:23:30.440Z,18.99
2023-05-15T14:25:59.330Z,19.05
2023-05-15T14:28:28.325Z,19.34
2023-05-15T14:30:57.178Z,19.60
2023-05-15T14:33:28.769Z,19.84
2023-05-15T14:35:57.654Z,19.97
2023-05-15T14:38:26.884Z,19.94
2023-05-15T14:40:55.708Z,19.82
2023-05-15T14:43:27.308Z,19.85
2023-05-15T14:45:56.239Z,20.03
2023-05-15T14:48:25.069Z,20.09
2023-05-15T14:50:53.981Z,19.95
2023-05-15T14:53:22.868Z,19.80
2023-05-15T14:55:51.887Z,19.66
2023-05-15T14:58:21.184Z,19.52
2023-05-15T15:00:50.026Z,19.43
2023-05-15T15:03:22.347Z,19.38
2023-05-15T15:05:52.138Z,19.34
2023-05-15T15:08:21.435Z,19.29
2023-05-15T15:10:50.428Z,19.22
2023-05-15T15:13:19.320Z,19.14
2023-05-15T15:15:48.575Z,19.02
2023-05-15T15:18:17.682Z,18.89
2023-05-15T15:20:46.884Z,18.76
2023-05-15T15:23:15.933Z,18.60
2023-05-15T15:25:44.762Z,18.45
2023-05-15T15:28:13.569Z,18.33
2023-05-15T15:30:42.352Z,18.22
2023-05-15T15:33:11.322Z,18.11
2023-05-15T15:35:40.418Z,18.01
2023-05-15T15:38:11.571Z,17.90
2023-05-15T15:40:41.032Z,17.80
2023-05-15T15:43:10.006Z,17.71
2023-05-15T15:45:38.835Z,17.62
2023-05-15T15:48:07.743Z,17.52
2023-05-15T15:50:36.808Z,17.43
2023-05-15T15:53:05.681Z,17.36
2023-05-15T15:55:34.840Z,17.31
2023-05-15T15:58:04.485Z,17.25
2023-05-15T16:00:33.666Z,17.18
2023-05-15T16:03:02.717Z,17.12
2023-05-15T16:05:31.606Z,17.06
2023-05-15T16:08:00.770Z,16.98
2023-05-15T16:10:29.802Z,16.91
2023-05-15T16:12:58.863Z,16.86
2023-05-15T16:15:27.676Z,16.83
2023-05-15T16:17:56.910Z,16.83
2023-05-15T16:20:26.225Z,16.85
2023-05-15T16:22:55.254Z,16.89
2023-05-15T16:25:24.109Z,16.90
2023-05-15T16:27:53.080Z,16.85
2023-05-15T16:30:23.374Z,16.81
2023-05-15T16:32:53.560Z,16.77
2023-05-15T16:35:22.379Z,16.73
2023-05-15T16:37:51.452Z,16.74
2023-05-15T16:40:20.388Z,16.72
2023-05-15T16:42:49.341Z,16.71
2023-05-15T16:45:18.150Z,16.67
2023-05-15T16:47:47.415Z,16.61
2023-05-15T16:50:16.603Z,16.54
2023-05-15T16:52:47.712Z,16.48
2023-05-15T16:55:18.506Z,16.40
2023-05-15T16:57:47.622Z,16.34
2023-05-15T17:00:17.161Z,16.29
2023-05-15T17:02:46.742Z,16.25
2023-05-15T17:05:16.229Z,16.21
2023-05-15T17:07:45.358Z,16.18
2023-05-15T17:10:14.260Z,16.13
2023-05-15T17:12:43.434Z,16.07
2023-05-15T17:15:13.774Z,16.02
2023-05-15T17:17:42.733Z,15.98
2023-05-15T17:20:12.411Z,15.93
2023-05-15T17:22:41.628Z,15.91
2023-05-15T17:25:11.275Z,15.92
2023-05-15T17:27:41.603Z,15.93
2023-05-15T17:30:11.954Z,15.94
2023-05-15T17:32:41.021Z,15.94
2023-05-15T17:35:10.527Z,15.92
2023-05-15T17:37:40.130Z,15.90
2023-05-15T17:40:10.155Z,15.89
2023-05-15T17:42:39.732Z,15.89
2023-05-15T17:45:09.378Z,15.92
2023-05-15T17:47:38.398Z,15.95
2023-05-15T17:50:10.170Z,15.97
2023-05-15T17:52:39.095Z,15.97
2023-05-15T17:55:09.045Z,15.97
2023-05-15T17:57:37.866Z,15.95
2023-05-15T18:00:08.280Z,15.94
2023-05-15T18:02:37.269Z,15.90
2023-05-15T18:05:07.102Z,15.88
2023-05-15T18:07:36.548Z,15.89
2023-05-15T18:10:06.805Z,15.89
2023-05-15T18:12:36.063Z,15.86
2023-05-15T18:15:06.085Z,15.84
2023-05-15T18:17:35.061Z,15.79
2023-05-15T18:20:05.752Z,15.74
2023-05-15T18:22:34.774Z,15.67
2023-05-15T18:25:04.768Z,15.62
2023-05-15T18:27:33.788Z,15.59
2023-05-15T18:30:02.744Z,15.59
2023-05-15T18:32:31.705Z,15.57
2023-05-15T18:35:00.791Z,15.54
2023-05-15T18:37:29.776Z,15.49
2023-05-15T18:39:59.261Z,15.44
2023-05-15T18:42:29.333Z,15.39
2023-05-15T18:44:58.356Z,15.37
2023-05-15T18:47:27.730Z,15.35
2023-05-15T18:49:57.140Z,15.35
2023-05-15T18:52:27.063Z,15.35
2023-05-15T18:54:57.662Z,15.32
2023-05-15T18:57:26.545Z,15.26
2023-05-15T18:59:55.431Z,15.22
2023-05-15T19:02:26.093Z,15.16
2023-05-15T19:04:55.484Z,15.11
2023-05-15T19:07:24.885Z,15.09
2023-05-15T19:09:54.165Z,15.07
2023-05-15T19:12:24.045Z,15.06
2023-05-15T19:14:53.497Z,15.03
2023-05-15T19:17:24.440Z,14.99
2023-05-15T19:19:54.517Z,14.94
2023-05-15T19:22:23.407Z,14.88
2023-05-15T19:24:52.369Z,14.82
2023-05-15T19:27:21.476Z,14.76
2023-05-15T19:29:50.594Z,14.74
2023-05-15T19:32:20.294Z,14.73
2023-05-15T19:34:49.377Z,14.71
2023-05-15T19:37:18.974Z,14.68
2023-05-15T19:39:47.933Z,14.64
2023-05-15T19:42:17.656Z,14.58
2023-05-15T19:44:46.494Z,14.51
2023-05-15T19:47:15.543Z,14.47
2023-05-15T19:49:44.489Z,14.45
2023-05-15T19:52:13.401Z,14.43
2023-05-15T19:54:42.373Z,14.42
2023-05-15T19:57:11.599Z,14.40
2023-05-15T19:59:40.375Z,14.36
2023-05-15T20:02:12.989Z,14.33
2023-05-15T20:04:41.961Z,14.28
2023-05-15T20:07:10.772Z,14.26
2023-05-15T20:09:39.613Z,14.26
2023-05-15T20:12:08.534Z,14.26
2023-05-15T20:14:37.878Z,14.28
2023-05-15T20:17:07.144Z,14.30
2023-05-15T20:19:36.130Z,14.30
2023-05-15T20:22:08.040Z,14.28
2023-05-15T20:24:38.683Z,14.25
2023-05-15T20:27:08.025Z,14.21
2023-05-15T20:29:37.549Z,14.16
2023-05-15T20:32:07.063Z,14.16
2023-05-15T20:34:36.960Z,14.17
2023-05-15T20:37:09.782Z,14.19
2023-05-15T20:39:38.766Z,14.20
2023-05-15T20:42:07.808Z,14.19
2023-05-15T20:44:39.186Z,14.16
2023-05-15T20:47:08.074Z,14.12
2023-05-15T20:49:36.959Z,14.09
2023-05-15T20:52:06.204Z,14.08
2023-05-15T20:54:35.255Z,14.07
2023-05-15T20:57:05.299Z,14.06
2023-05-15T20:59:34.263Z,14.05
2023-05-15T21:02:03.066Z,14.05
2023-05-15T21:04:31.915Z,14.02
2023-05-15T21:07:01.043Z,13.98
2023-05-15T21:09:30.102Z,13.95
2023-05-15T21:12:00.025Z,13.93
2023-05-15T21:14:29.151Z,13.94
2023-05-15T21:16:58.167Z,13.94
2023-05-15T21:19:27.242Z,13.95
2023-05-15T21:21:56.129Z,13.93
2023-05-15T21:24:24.964Z,13.90
2023-05-15T21:26:53.857Z,13.86
2023-05-15T21:29:22.788Z,13.82
2023-05-15T21:31:51.715Z,13.78
2023-05-15T21:34:22.121Z,13.77
2023-05-15T21:36:53.165Z,13.76
2023-05-15T21:39:22.162Z,13.77
2023-05-15T21:41:51.561Z,13.79
2023-05-15T21:44:21.478Z,13.78
2023-05-15T21:46:51.086Z,13.76
2023-05-15T21:49:20.079Z,13.72
2023-05-15T21:51:48.967Z,13.68
2023-05-15T21:54:17.776Z,13.65
2023-05-15T21:56:46.610Z,13.65
2023-05-15T21:59:15.640Z,13.67
2023-05-15T22:01:44.529Z,13.69
2023-05-15T22:04:13.660Z,13.68
2023-05-15T22:06:43.670Z,13.67
2023-05-15T22:09:12.639Z,13.64
2023-05-15T22:11:41.462Z,13.60
2023-05-15T22:14:10.442Z,13.61
2023-05-15T22:16:39.493Z,13.64
2023-05-15T22:19:18.448Z,13.67
2023-05-15T22:21:58.030Z,13.70
2023-05-15T22:24:27.707Z,13.70
2023-05-15T22:26:56.688Z,13.67
2023-05-15T22:29:25.686Z,13.65
2023-05-15T22:31:56.181Z,13.64
2023-05-15T22:34:28.855Z,13.65
2023-05-15T22:36:57.893Z,13.67
2023-05-15T22:39:26.891Z,13.67
2023-05-15T22:41:55.979Z,13.66
2023-05-15T22:44:24.999Z,13.64
2023-05-15T22:46:54.502Z,13.61
2023-05-15T22:49:25.565Z,13.57
2023-05-15T22:51:55.948Z,13.54
2023-05-15T22:54:25.082Z,13.54
2023-05-15T22:56:54.652Z,13.55
2023-05-15T22:59:23.544Z,13.57
2023-05-15T23:01:52.838Z,13.56
2023-05-15T23:04:22.134Z,13.53
2023-05-15T23:06:51.463Z,13.50
2023-05-15T23:09:20.438Z,13.47
2023-05-15T23:11:49.434Z,13.43
2023-05-15T23:14:18.432Z,13.38
2023-05-15T23:16:47.514Z,13.34
2023-05-15T23:19:16.878Z,13.33
2023-05-15T23:21:46.738Z,13.31
2023-05-15T23:24:16.265Z,13.31
2023-05-15T23:26:47.292Z,13.29
2023-05-15T23:29:16.797Z,13.26
2023-05-15T23:31:46.214Z,13.29
2023-05-15T23:34:15.186Z,13.30
2023-05-15T23:36:44.294Z,13.35
2023-05-15T23:39:13.184Z,13.36
2023-05-15T23:41:42.270Z,13.35
2023-05-15T23:44:11.240Z,13.32
2023-05-15T23:46:40.424Z,13.30
2023-05-15T23:49:09.486Z,13.26
2023-05-15T23:51:38.457Z,13.22
2023-05-15T23:54:07.654Z,13.17
2023-05-15T23:56:36.605Z,13.17
2023-05-15T23:59:05.434Z,13.16
